createdAt,value
2023-03-30T00:01:19.735Z,9.40
2023-03-30T00:03:49.423Z,9.25
2023-03-30T00:06:24.771Z,9.48
2023-03-30T00:08:57.581Z,9.15
2023-03-30T00:11:26.440Z,11.50
2023-03-30T00:13:53.672Z,11.82
2023-03-30T00:16:22.102Z,11.60
2023-03-30T00:18:49.336Z,13.43
2023-03-30T00:21:18.475Z,13.95
2023-03-30T00:23:48.535Z,11.18
2023-03-30T00:26:16.202Z,18.38
2023-03-30T00:28:43.259Z,16.55
2023-03-30T00:31:11.582Z,15.13
2023-03-30T00:33:46.430Z,18.23
2023-03-30T00:36:15.009Z,14.73
2023-03-30T00:38:42.372Z,18.25
2023-03-30T00:41:09.551Z,16.45
2023-03-30T00:43:59.038Z,18.00
2023-03-30T00:46:26.528Z,16.88
2023-03-30T00:48:58.006Z,16.30
2023-03-30T00:51:27.297Z,20.73
2023-03-30T00:54:00.446Z,21.52
2023-03-30T00:56:31.040Z,20.10
2023-03-30T00:58:58.608Z,17.13
2023-03-30T01:01:29.023Z,11.90
2023-03-30T01:04:02.693Z,10.77
2023-03-30T01:06:31.696Z,13.70
2023-03-30T01:08:59.279Z,14.02
2023-03-30T01:11:27.110Z,11.20
2023-03-30T01:14:00.165Z,14.10
2023-03-30T01:16:36.339Z,11.88
2023-03-30T01:19:48.490Z,11.13
2023-03-30T01:22:50.711Z,11.30
2023-03-30T01:25:40.763Z,13.02
2023-03-30T01:28:21.449Z,11.45
2023-03-30T01:31:22.051Z,8.43
2023-03-30T01:34:25.690Z,7.95
2023-03-30T01:37:37.105Z,10.88
2023-03-30T01:40:22.338Z,9.98
2023-03-30T01:43:14.652Z,5.82
2023-03-30T01:45:47.939Z,6.03
2023-03-30T01:48:30.063Z,3.70
2023-03-30T01:51:04.936Z,5.47
2023-03-30T01:56:22.155Z,6.03
2023-03-30T02:01:24.528Z,4.25
2023-03-30T02:03:56.224Z,3.83
2023-03-30T02:06:43.687Z,3.35
2023-03-30T02:09:17.370Z,6.97
2023-03-30T02:11:48.626Z,3.78
2023-03-30T02:14:21.989Z,5.07
2023-03-30T02:16:54.427Z,3.53
2023-03-30T02:19:22.029Z,5.18
2023-03-30T02:21:50.716Z,4.05
2023-03-30T02:24:23.180Z,5.68
2023-03-30T02:26:52.394Z,3.30
2023-03-30T02:29:21.581Z,2.60
2023-03-30T02:31:54.002Z,3.00
2023-03-30T02:34:48.909Z,2.17
2023-03-30T02:37:48.026Z,2.25
2023-03-30T02:40:36.158Z,3.05
2023-03-30T02:43:42.459Z,2.28
2023-03-30T02:49:18.131Z,1.10
2023-03-30T02:51:51.737Z,3.05
2023-03-30T02:54:31.481Z,3.55
2023-03-30T02:57:18.045Z,2.75
2023-03-30T03:00:22.539Z,4.15
2023-03-30T03:02:57.929Z,6.97
2023-03-30T03:05:27.255Z,2.90
2023-03-30T03:07:55.222Z,4.65
2023-03-30T03:10:22.386Z,4.75
2023-03-30T03:12:50.165Z,8.20
2023-03-30T03:15:17.153Z,4.57
2023-03-30T03:17:45.599Z,6.68
2023-03-30T03:20:13.311Z,11.68
2023-03-30T03:22:40.241Z,9.32
2023-03-30T03:25:08.959Z,7.85
2023-03-30T03:27:35.931Z,14.48
2023-03-30T03:30:04.236Z,9.32
2023-03-30T03:32:31.445Z,10.05
2023-03-30T03:34:58.404Z,11.52
2023-03-30T03:37:25.342Z,9.00
2023-03-30T03:39:52.287Z,10.00
2023-03-30T03:42:19.490Z,13.98
2023-03-30T03:44:46.401Z,9.55
2023-03-30T03:47:16.016Z,14.55
2023-03-30T03:49:43.501Z,13.60
2023-03-30T03:52:11.382Z,14.23
2023-03-30T03:54:38.619Z,10.20
2023-03-30T03:57:06.651Z,16.63
2023-03-30T03:59:33.789Z,13.20
2023-03-30T04:02:00.779Z,12.55
2023-03-30T04:04:28.109Z,13.20
2023-03-30T04:06:55.028Z,15.30
2023-03-30T04:09:22.428Z,10.65
2023-03-30T04:11:49.783Z,14.18
2023-03-30T04:14:16.976Z,16.65
2023-03-30T04:16:44.159Z,16.48
2023-03-30T04:19:12.897Z,13.93
2023-03-30T04:21:41.389Z,12.05
2023-03-30T04:24:12.406Z,16.60
2023-03-30T04:26:41.967Z,24.00
2023-03-30T04:29:09.130Z,17.13
2023-03-30T04:31:38.517Z,11.90
2023-03-30T04:34:05.579Z,18.67
2023-03-30T04:36:32.486Z,18.23
2023-03-30T04:39:00.740Z,18.15
2023-03-30T04:41:33.668Z,14.10
2023-03-30T04:44:06.540Z,17.40
2023-03-30T04:46:34.272Z,18.65
2023-03-30T04:49:01.373Z,19.27
2023-03-30T04:51:29.126Z,14.85
2023-03-30T04:53:56.168Z,12.75
2023-03-30T04:56:23.156Z,14.73
2023-03-30T04:58:50.263Z,17.70
2023-03-30T05:01:17.195Z,18.10
2023-03-30T05:03:44.179Z,15.25
2023-03-30T05:06:11.682Z,17.17
2023-03-30T05:08:40.602Z,15.32
2023-03-30T05:11:08.886Z,20.35
2023-03-30T05:13:35.901Z,19.42
2023-03-30T05:16:02.814Z,14.40
2023-03-30T05:18:29.713Z,16.60
2023-03-30T05:20:58.843Z,18.90
2023-03-30T05:23:26.500Z,16.85
2023-03-30T05:25:55.384Z,15.52
2023-03-30T05:28:23.124Z,16.98
2023-03-30T05:30:56.276Z,23.70
2023-03-30T05:33:23.791Z,22.25
2023-03-30T05:35:51.841Z,19.17
2023-03-30T05:38:18.793Z,19.48
2023-03-30T05:40:46.161Z,21.38
2023-03-30T05:43:13.215Z,21.85
2023-03-30T05:45:40.237Z,22.70
2023-03-30T05:48:07.484Z,19.88
2023-03-30T05:50:34.508Z,20.85
2023-03-30T05:53:01.773Z,22.10
2023-03-30T05:55:29.160Z,19.92
2023-03-30T05:57:57.052Z,24.77
2023-03-30T06:00:24.053Z,23.02
2023-03-30T06:02:52.228Z,19.05
2023-03-30T06:05:19.713Z,23.15
2023-03-30T06:07:46.736Z,17.40
2023-03-30T06:10:13.814Z,26.15
2023-03-30T06:12:40.756Z,15.30
2023-03-30T06:15:09.409Z,21.83
2023-03-30T06:17:37.310Z,27.70
2023-03-30T06:20:11.677Z,20.27
2023-03-30T06:22:42.262Z,19.10
2023-03-30T06:25:10.509Z,17.60
2023-03-30T06:27:37.611Z,27.35
2023-03-30T06:30:05.461Z,27.02
2023-03-30T06:32:32.741Z,26.63
2023-03-30T06:34:59.857Z,25.77
2023-03-30T06:37:26.867Z,28.80
2023-03-30T06:39:54.259Z,22.40
2023-03-30T06:42:21.571Z,21.83
2023-03-30T06:44:49.946Z,25.65
2023-03-30T06:47:17.113Z,24.30
2023-03-30T06:49:44.055Z,31.73
2023-03-30T06:52:11.832Z,20.30
2023-03-30T06:54:38.758Z,23.88
2023-03-30T06:57:05.796Z,27.33
2023-03-30T06:59:34.639Z,21.13
2023-03-30T07:02:02.252Z,24.17
2023-03-30T07:04:29.560Z,32.72
2023-03-30T07:06:58.263Z,25.27
2023-03-30T07:09:26.572Z,30.02
2023-03-30T07:11:55.889Z,37.25
2023-03-30T07:14:23.737Z,24.65
2023-03-30T07:16:51.618Z,27.38
2023-03-30T07:19:18.871Z,28.00
2023-03-30T07:21:45.972Z,38.58
2023-03-30T07:24:12.993Z,32.17
2023-03-30T07:26:39.890Z,23.17
2023-03-30T07:29:07.634Z,25.13
2023-03-30T07:31:37.356Z,29.65
2023-03-30T07:34:04.627Z,23.55
2023-03-30T07:36:31.524Z,23.52
2023-03-30T07:38:58.832Z,26.83
2023-03-30T07:41:25.959Z,24.20
2023-03-30T07:43:52.886Z,25.83
2023-03-30T07:46:20.487Z,22.77
2023-03-30T07:48:47.418Z,25.40
2023-03-30T07:51:15.206Z,18.77
2023-03-30T07:53:42.502Z,20.88
2023-03-30T07:56:09.491Z,19.88
2023-03-30T07:58:37.260Z,21.73
2023-03-30T08:01:05.440Z,19.10
2023-03-30T08:03:33.389Z,21.02
2023-03-30T08:06:06.743Z,24.58
2023-03-30T08:08:34.251Z,19.13
2023-03-30T08:11:02.360Z,20.00
2023-03-30T08:13:29.679Z,18.58
2023-03-30T08:15:56.855Z,14.15
2023-03-30T08:18:23.869Z,12.32
2023-03-30T08:20:54.324Z,15.27
2023-03-30T08:23:22.268Z,17.25
2023-03-30T08:25:52.892Z,17.00
2023-03-30T08:28:21.689Z,14.13
2023-03-30T08:30:49.014Z,19.48
2023-03-30T08:33:17.170Z,20.10
2023-03-30T08:35:48.346Z,17.70
2023-03-30T08:38:17.577Z,15.50
2023-03-30T08:40:47.778Z,18.08
2023-03-30T08:43:41.753Z,18.98
2023-03-30T08:46:16.341Z,15.82
2023-03-30T08:48:43.987Z,20.20
2023-03-30T08:51:27.957Z,17.80
2023-03-30T08:54:02.132Z,12.98
2023-03-30T08:56:37.795Z,22.48
2023-03-30T08:59:43.562Z,20.88
2023-03-30T09:02:29.194Z,15.70
2023-03-30T09:05:02.280Z,17.15
2023-03-30T09:07:34.499Z,18.77
2023-03-30T09:10:01.936Z,19.00
2023-03-30T09:12:48.610Z,18.30
2023-03-30T09:15:31.730Z,23.52
2023-03-30T09:18:20.516Z,20.67
2023-03-30T09:20:49.009Z,18.50
2023-03-30T09:23:17.902Z,18.08
2023-03-30T09:25:51.407Z,13.75
2023-03-30T09:28:45.816Z,15.80
2023-03-30T09:31:25.440Z,14.20
2023-03-30T09:34:40.525Z,13.00
2023-03-30T09:37:13.293Z,17.42
2023-03-30T09:39:41.554Z,13.93
2023-03-30T09:42:45.833Z,13.23
2023-03-30T09:45:22.859Z,13.85
2023-03-30T09:47:49.807Z,16.27
2023-03-30T09:50:29.588Z,17.65
2023-03-30T09:53:01.466Z,17.25
2023-03-30T09:55:35.312Z,18.27
2023-03-30T09:58:26.838Z,15.57
2023-03-30T10:01:12.816Z,13.90
2023-03-30T10:03:42.396Z,20.85
2023-03-30T10:06:18.094Z,14.55
2023-03-30T10:08:52.369Z,17.90
2023-03-30T10:11:44.922Z,13.93
2023-03-30T10:14:31.863Z,11.55
2023-03-30T10:17:00.115Z,11.55
2023-03-30T10:19:28.245Z,12.57
2023-03-30T10:22:00.295Z,10.32
2023-03-30T10:24:31.792Z,11.85
2023-03-30T10:27:09.938Z,14.13
2023-03-30T10:29:37.113Z,8.57
2023-03-30T10:32:21.997Z,11.25
2023-03-30T10:35:04.701Z,13.57
2023-03-30T10:37:37.691Z,15.20
2023-03-30T10:40:18.397Z,12.13
2023-03-30T10:42:50.154Z,15.77
2023-03-30T10:45:22.652Z,13.07
2023-03-30T10:47:49.585Z,17.40
2023-03-30T10:50:41.407Z,16.90
2023-03-30T10:54:01.219Z,14.18
2023-03-30T10:56:49.282Z,14.38
2023-03-30T10:59:35.039Z,17.67
2023-03-30T11:02:29.844Z,18.40
2023-03-30T11:05:12.791Z,15.90
2023-03-30T11:08:18.133Z,14.48
2023-03-30T11:10:50.351Z,15.57
2023-03-30T11:13:54.188Z,16.60
2023-03-30T11:16:47.888Z,21.65
2023-03-30T11:19:26.622Z,22.23
2023-03-30T11:22:22.573Z,26.10
2023-03-30T11:27:40.659Z,19.90
2023-03-30T11:30:26.993Z,21.73
2023-03-30T11:32:58.051Z,21.77
2023-03-30T11:35:37.052Z,28.02
2023-03-30T11:38:21.598Z,20.42
2023-03-30T11:40:56.343Z,24.08
2023-03-30T11:43:27.334Z,21.80
2023-03-30T11:47:10.816Z,16.92
2023-03-30T11:49:57.912Z,14.63
2023-03-30T11:53:07.980Z,12.07
2023-03-30T11:55:55.229Z,13.77
2023-03-30T11:59:05.688Z,8.95
2023-03-30T12:01:48.241Z,11.93
2023-03-30T12:04:29.561Z,11.63
2023-03-30T12:07:01.388Z,12.43
2023-03-30T12:09:45.557Z,11.23
2023-03-30T12:12:16.262Z,9.57
2023-03-30T12:15:03.387Z,11.38
2023-03-30T12:17:50.782Z,11.23
2023-03-30T12:20:49.206Z,12.25
2023-03-30T12:23:34.534Z,20.00
2023-03-30T12:26:19.813Z,17.90
2023-03-30T12:31:19.022Z,19.20
2023-03-30T12:33:53.835Z,21.42
2023-03-30T12:36:40.215Z,18.05
2023-03-30T12:39:18.027Z,18.67
2023-03-30T12:41:50.775Z,16.52
2023-03-30T12:44:52.058Z,14.57
2023-03-30T12:47:51.864Z,20.33
2023-03-30T12:50:37.434Z,21.17
2023-03-30T12:56:20.598Z,20.45
2023-03-30T12:59:26.336Z,22.13
2023-03-30T13:02:32.744Z,22.67
2023-03-30T13:07:32.239Z,19.75
2023-03-30T13:10:06.372Z,22.67
2023-03-30T13:12:36.261Z,21.65
2023-03-30T13:15:17.637Z,21.80
2023-03-30T13:17:57.469Z,21.70
2023-03-30T13:20:37.164Z,25.85
2023-03-30T13:23:27.835Z,19.70
2023-03-30T13:25:57.890Z,20.42
2023-03-30T13:29:03.635Z,18.25
2023-03-30T13:31:58.079Z,12.75
2023-03-30T13:35:29.991Z,18.38
2023-03-30T13:38:28.369Z,16.05
2023-03-30T13:41:19.803Z,18.60
2023-03-30T13:44:07.988Z,16.25
2023-03-30T13:46:47.046Z,15.48
2023-03-30T13:49:38.727Z,15.05
2023-03-30T13:52:17.457Z,16.65
2023-03-30T13:54:46.172Z,11.88
2023-03-30T13:57:31.980Z,8.65
2023-03-30T14:00:28.631Z,9.93
2023-03-30T14:02:55.736Z,10.38
2023-03-30T14:05:28.028Z,8.68
2023-03-30T14:07:58.823Z,14.82
2023-03-30T14:10:27.251Z,17.25
2023-03-30T14:12:56.997Z,12.70
2023-03-30T14:15:34.004Z,14.15
2023-03-30T14:18:05.110Z,14.18
2023-03-30T14:20:55.882Z,17.50
2023-03-30T14:23:38.169Z,14.68
2023-03-30T14:26:29.390Z,16.05
2023-03-30T14:29:10.880Z,16.40
2023-03-30T14:31:41.571Z,13.07
2023-03-30T14:34:30.815Z,13.00
2023-03-30T14:37:05.607Z,12.85
2023-03-30T14:39:42.788Z,12.23
2023-03-30T14:42:24.870Z,16.00
2023-03-30T14:44:56.209Z,11.25
2023-03-30T14:47:26.087Z,11.00
2023-03-30T14:50:00.654Z,16.63
2023-03-30T14:52:42.102Z,14.82
2023-03-30T14:55:17.566Z,9.45
2023-03-30T14:57:46.988Z,12.18
2023-03-30T15:00:19.279Z,11.05
2023-03-30T15:02:51.004Z,11.85
2023-03-30T15:05:19.414Z,14.50
2023-03-30T15:07:49.801Z,14.10
2023-03-30T15:10:51.353Z,15.65
2023-03-30T15:13:32.855Z,14.68
2023-03-30T15:16:01.293Z,16.73
2023-03-30T15:18:30.865Z,13.02
2023-03-30T15:20:59.709Z,13.27
2023-03-30T15:23:35.156Z,14.40
2023-03-30T15:26:04.530Z,13.82
2023-03-30T15:28:39.048Z,18.58
2023-03-30T15:31:06.286Z,20.55
2023-03-30T15:33:42.036Z,16.95
2023-03-30T15:36:36.475Z,16.83
2023-03-30T15:39:19.201Z,13.88
2023-03-30T15:41:50.977Z,12.02
2023-03-30T15:44:20.912Z,9.82
2023-03-30T15:46:51.597Z,12.73
2023-03-30T15:49:23.581Z,14.02
2023-03-30T15:51:58.943Z,14.77
2023-03-30T15:54:41.548Z,12.45
2023-03-30T15:57:13.434Z,10.27
2023-03-30T15:59:52.771Z,12.43
2023-03-30T16:02:32.632Z,9.32
2023-03-30T16:05:05.496Z,9.13
2023-03-30T16:07:33.319Z,10.00
2023-03-30T16:10:00.499Z,9.15
2023-03-30T16:12:30.194Z,13.07
2023-03-30T16:14:58.654Z,11.07
2023-03-30T16:17:25.939Z,9.52
2023-03-30T16:19:52.888Z,12.23
2023-03-30T16:22:19.968Z,9.15
2023-03-30T16:24:48.516Z,10.88
2023-03-30T16:27:15.671Z,10.35
2023-03-30T16:29:42.997Z,13.30
2023-03-30T16:32:09.968Z,12.98
2023-03-30T16:34:37.318Z,15.55
2023-03-30T16:37:04.292Z,9.48
2023-03-30T16:39:31.511Z,12.40
2023-03-30T16:41:58.633Z,13.60
2023-03-30T16:44:26.186Z,14.10
2023-03-30T16:46:53.640Z,13.90
2023-03-30T16:49:24.697Z,14.27
2023-03-30T16:51:55.363Z,15.55
2023-03-30T16:54:32.091Z,16.00
2023-03-30T16:57:02.004Z,18.50
2023-03-30T16:59:31.127Z,14.15
2023-03-30T17:01:58.970Z,13.55
2023-03-30T17:04:26.830Z,13.23
2023-03-30T17:06:56.549Z,15.68
2023-03-30T17:09:23.630Z,12.02
2023-03-30T17:11:51.594Z,16.27
2023-03-30T17:14:20.477Z,20.30
2023-03-30T17:16:47.570Z,19.50
2023-03-30T17:19:15.036Z,17.48
2023-03-30T17:21:46.289Z,18.58
2023-03-30T17:24:15.404Z,14.63
2023-03-30T17:26:43.134Z,17.65
2023-03-30T17:29:11.271Z,16.23
2023-03-30T17:31:46.044Z,17.73
2023-03-30T17:34:13.303Z,14.85
2023-03-30T17:36:40.410Z,17.00
2023-03-30T17:39:07.562Z,17.58
2023-03-30T17:41:34.478Z,15.20
2023-03-30T17:44:01.374Z,16.25
2023-03-30T17:46:28.640Z,15.88
2023-03-30T17:48:55.769Z,17.40
2023-03-30T17:51:22.641Z,19.42
2023-03-30T17:53:49.748Z,15.13
2023-03-30T17:56:16.670Z,17.33
2023-03-30T17:58:43.584Z,13.07
2023-03-30T18:01:13.113Z,16.98
2023-03-30T18:03:40.202Z,20.02
2023-03-30T18:06:07.811Z,15.13
2023-03-30T18:08:36.336Z,24.75
2023-03-30T18:11:04.865Z,23.05
2023-03-30T18:13:32.432Z,17.42
2023-03-30T18:16:01.993Z,18.15
2023-03-30T18:18:31.352Z,24.33
2023-03-30T18:21:04.935Z,22.90
2023-03-30T18:23:37.628Z,15.00
2023-03-30T18:26:10.340Z,15.60
2023-03-30T18:28:40.711Z,17.75
2023-03-30T18:31:08.983Z,16.77
2023-03-30T18:33:36.248Z,18.85
2023-03-30T18:36:06.500Z,19.58
2023-03-30T18:38:34.076Z,17.92
2023-03-30T18:41:01.660Z,20.77
2023-03-30T18:43:28.874Z,18.10
2023-03-30T18:46:00.001Z,15.32
2023-03-30T18:48:29.047Z,17.58
2023-03-30T18:50:57.005Z,17.52
2023-03-30T18:53:28.090Z,21.60
2023-03-30T18:55:58.793Z,19.40
2023-03-30T18:58:28.958Z,19.83
2023-03-30T19:00:56.585Z,20.35
2023-03-30T19:03:25.026Z,17.73
2023-03-30T19:05:52.559Z,19.55
2023-03-30T19:08:22.814Z,17.92
2023-03-30T19:10:56.032Z,17.23
2023-03-30T19:13:25.533Z,15.55
2023-03-30T19:15:53.703Z,20.58
2023-03-30T19:18:21.078Z,19.05
2023-03-30T19:20:50.253Z,21.98
2023-03-30T19:23:19.225Z,20.75
2023-03-30T19:25:46.364Z,19.35
2023-03-30T19:28:15.616Z,23.38
2023-03-30T19:30:43.460Z,25.88
2023-03-30T19:33:19.960Z,27.30
2023-03-30T19:35:47.532Z,18.80
2023-03-30T19:38:15.877Z,26.50
2023-03-30T19:40:43.383Z,23.58
2023-03-30T19:43:10.772Z,30.35
2023-03-30T19:45:38.308Z,21.67
2023-03-30T19:48:05.391Z,19.83
2023-03-30T19:50:32.607Z,28.50
2023-03-30T19:53:00.040Z,22.70
2023-03-30T19:55:28.302Z,19.85
2023-03-30T19:57:56.085Z,22.05
2023-03-30T20:00:23.919Z,27.85
2023-03-30T20:02:54.096Z,28.05
2023-03-30T20:05:24.028Z,24.45
2023-03-30T20:07:51.771Z,28.38
2023-03-30T20:10:24.028Z,28.70
2023-03-30T20:12:52.322Z,26.05
2023-03-30T20:15:21.872Z,26.88
2023-03-30T20:17:49.047Z,23.27
2023-03-30T20:20:23.075Z,26.25
2023-03-30T20:22:53.782Z,23.60
2023-03-30T20:25:22.251Z,23.25
2023-03-30T20:27:49.652Z,21.73
2023-03-30T20:30:17.368Z,23.90
2023-03-30T20:32:48.421Z,29.48
2023-03-30T20:35:25.768Z,30.27
2023-03-30T20:37:53.008Z,30.27
2023-03-30T20:40:21.275Z,25.67
2023-03-30T20:42:48.613Z,32.10
2023-03-30T20:45:17.801Z,26.80
2023-03-30T20:47:50.355Z,35.13
2023-03-30T20:50:17.470Z,38.67
2023-03-30T20:52:44.375Z,37.20
2023-03-30T20:55:11.677Z,40.60
2023-03-30T20:57:38.921Z,33.42
2023-03-30T21:00:07.886Z,41.85
2023-03-30T21:02:35.083Z,32.35
2023-03-30T21:05:02.505Z,38.83
2023-03-30T21:07:30.020Z,45.40
2023-03-30T21:09:56.949Z,37.85
2023-03-30T21:12:23.830Z,40.63
2023-03-30T21:14:50.735Z,37.42
2023-03-30T21:17:17.716Z,50.20
2023-03-30T21:19:44.931Z,46.42
2023-03-30T21:22:11.808Z,42.30
2023-03-30T21:24:38.858Z,47.03
2023-03-30T21:27:05.958Z,39.92
2023-03-30T21:29:33.037Z,44.05
2023-03-30T21:31:59.954Z,48.50
2023-03-30T21:34:26.827Z,39.33
2023-03-30T21:36:54.127Z,50.92
2023-03-30T21:39:21.391Z,49.08
2023-03-30T21:41:48.352Z,46.03
2023-03-30T21:44:15.271Z,45.25
2023-03-30T21:46:42.335Z,42.60
2023-03-30T21:49:09.320Z,41.95
2023-03-30T21:51:36.204Z,41.58
2023-03-30T21:54:03.558Z,38.55
2023-03-30T21:56:31.389Z,43.58
2023-03-30T21:58:59.487Z,38.13
2023-03-30T22:01:26.997Z,45.42
2023-03-30T22:03:55.210Z,42.88
2023-03-30T22:06:23.294Z,33.58
2023-03-30T22:08:51.093Z,37.70
2023-03-30T22:11:21.921Z,37.20
2023-03-30T22:13:49.980Z,30.30
2023-03-30T22:16:22.737Z,37.20
2023-03-30T22:18:51.456Z,37.53
2023-03-30T22:21:25.074Z,35.53
2023-03-30T22:23:55.023Z,34.33
2023-03-30T22:26:22.523Z,41.22
2023-03-30T22:28:49.703Z,42.70
2023-03-30T22:31:17.036Z,46.53
2023-03-30T22:33:44.381Z,42.28
2023-03-30T22:36:24.039Z,48.50
2023-03-30T22:38:52.328Z,39.17
2023-03-30T22:41:24.299Z,32.80
2023-03-30T22:43:53.978Z,36.33
2023-03-30T22:46:22.482Z,37.60
2023-03-30T22:48:50.228Z,31.20
2023-03-30T22:51:23.770Z,28.27
2023-03-30T22:53:50.730Z,26.33
2023-03-30T22:56:17.981Z,30.50
2023-03-30T22:58:44.944Z,28.77
2023-03-30T23:01:12.393Z,23.08
2023-03-30T23:03:39.809Z,25.23
2023-03-30T23:06:08.235Z,24.60
2023-03-30T23:08:36.035Z,15.73
2023-03-30T23:11:06.709Z,20.75
2023-03-30T23:13:42.309Z,14.68
2023-03-30T23:16:09.461Z,15.88
2023-03-30T23:18:36.980Z,18.50
2023-03-30T23:21:06.980Z,16.85
2023-03-30T23:23:36.321Z,14.00
2023-03-30T23:26:10.073Z,15.70
2023-03-30T23:28:42.224Z,14.02
2023-03-30T23:31:11.027Z,12.68
2023-03-30T23:33:38.283Z,13.07
2023-03-30T23:36:06.677Z,11.25
2023-03-30T23:38:34.123Z,16.70
2023-03-30T23:41:01.583Z,12.18
2023-03-30T23:43:28.553Z,13.57
2023-03-30T23:45:56.032Z,13.73
2023-03-30T23:48:23.082Z,16.35
2023-03-30T23:50:50.218Z,15.43
2023-03-30T23:53:19.878Z,15.55
2023-03-30T23:55:50.353Z,12.73
2023-03-30T23:58:20.895Z,14.43
